sensor_id;sensor_type;location;lat;lon;timestamp;pressure;altitude;pressure_sealevel;temperature;humidity
23446;BME280;11895;48.738;9.320;2022-09-27T00:01:23;97086.94;;;11.69;100.00
23446;BME280;11895;48.738;9.320;2022-09-27T00:03:52;97090.03;;;11.29;100.00
23446;BME280;11895;48.738;9.320;2022-09-27T00:06:26;97088.16;;;10.83;100.00
23446;BME280;11895;48.738;9.320;2022-09-27T00:08:55;97082.94;;;11.28;100.00
23446;BME280;11895;48.738;9.320;2022-09-27T00:14:10;97079.63;;;11.82;100.00
23446;BME280;11895;48.738;9.320;2022-09-27T00:16:41;97080.34;;;11.84;100.00
23446;BME280;11895;48.738;9.320;2022-09-27T00:19:13;97075.91;;;11.72;100.00
23446;BME280;11895;48.738;9.320;2022-09-27T00:21:42;97072.03;;;11.87;100.00
23446;BME280;11895;48.738;9.320;2022-09-27T00:24:17;97070.66;;;11.81;100.00
23446;BME280;11895;48.738;9.320;2022-09-27T00:26:47;97061.22;;;11.98;100.00
23446;BME280;11895;48.738;9.320;2022-09-27T00:29:16;97063.59;;;11.45;100.00
23446;BME280;11895;48.738;9.320;2022-09-27T00:31:45;97062.59;;;11.35;100.00
23446;BME280;11895;48.738;9.320;2022-09-27T00:34:18;97066.78;;;11.39;100.00
23446;BME280;11895;48.738;9.320;2022-09-27T00:36:48;97058.84;;;11.49;100.00
23446;BME280;11895;48.738;9.320;2022-09-27T00:39:16;97053.94;;;11.65;100.00
23446;BME280;11895;48.738;9.320;2022-09-27T00:41:44;97056.91;;;11.73;100.00
23446;BME280;11895;48.738;9.320;2022-09-27T00:47:08;97050.41;;;11.76;100.00
23446;BME280;11895;48.738;9.320;2022-09-27T00:55:06;97033.53;;;11.96;100.00
23446;BME280;11895;48.738;9.320;2022-09-27T00:57:38;97035.84;;;12.12;100.00
23446;BME280;11895;48.738;9.320;2022-09-27T01:00:09;97034.22;;;12.21;100.00
23446;BME280;11895;48.738;9.320;2022-09-27T01:02:46;97030.94;;;12.06;100.00
23446;BME280;11895;48.738;9.320;2022-09-27T01:05:19;97028.50;;;12.14;100.00
23446;BME280;11895;48.738;9.320;2022-09-27T01:07:49;97021.25;;;12.15;100.00
23446;BME280;11895;48.738;9.320;2022-09-27T01:10:17;97030.56;;;11.66;100.00
23446;BME280;11895;48.738;9.320;2022-09-27T01:29:19;97023.56;;;11.52;100.00
23446;BME280;11895;48.738;9.320;2022-09-27T01:37:31;97015.78;;;11.36;100.00
23446;BME280;11895;48.738;9.320;2022-09-27T01:48:21;97018.00;;;11.31;100.00
23446;BME280;11895;48.738;9.320;2022-09-27T01:53:41;97014.59;;;11.51;100.00
23446;BME280;11895;48.738;9.320;2022-09-27T01:59:17;97029.53;;;11.55;100.00
23446;BME280;11895;48.738;9.320;2022-09-27T02:02:00;97020.84;;;11.52;100.00
23446;BME280;11895;48.738;9.320;2022-09-27T02:04:59;97017.19;;;11.75;100.00
23446;BME280;11895;48.738;9.320;2022-09-27T02:07:41;97012.66;;;11.76;100.00
23446;BME280;11895;48.738;9.320;2022-09-27T02:10:17;97009.94;;;11.65;100.00
23446;BME280;11895;48.738;9.320;2022-09-27T02:13:03;97010.44;;;11.81;100.00
23446;BME280;11895;48.738;9.320;2022-09-27T02:19:19;97018.22;;;11.86;100.00
23446;BME280;11895;48.738;9.320;2022-09-27T02:22:24;97024.44;;;11.86;100.00
23446;BME280;11895;48.738;9.320;2022-09-27T02:28:05;97040.50;;;11.99;100.00
23446;BME280;11895;48.738;9.320;2022-09-27T02:30:42;97038.94;;;11.85;100.00
23446;BME280;11895;48.738;9.320;2022-09-27T02:33:20;97052.09;;;11.54;100.00
23446;BME280;11895;48.738;9.320;2022-09-27T02:35:51;97050.13;;;11.45;100.00
23446;BME280;11895;48.738;9.320;2022-09-27T02:38:18;97049.25;;;11.33;100.00
23446;BME280;11895;48.738;9.320;2022-09-27T02:40:46;97044.72;;;11.45;100.00
23446;BME280;11895;48.738;9.320;2022-09-27T02:43:16;97057.47;;;11.54;100.00
23446;BME280;11895;48.738;9.320;2022-09-27T03:03:58;97062.94;;;11.88;100.00
23446;BME280;11895;48.738;9.320;2022-09-27T03:06:41;97066.88;;;11.95;100.00
23446;BME280;11895;48.738;9.320;2022-09-27T03:09:18;97072.38;;;11.82;100.00
23446;BME280;11895;48.738;9.320;2022-09-27T03:11:56;97082.78;;;11.76;100.00
23446;BME280;11895;48.738;9.320;2022-09-27T03:14:25;97083.72;;;11.64;100.00
23446;BME280;11895;48.738;9.320;2022-09-27T03:17:03;97086.47;;;11.75;100.00
23446;BME280;11895;48.738;9.320;2022-09-27T03:19:52;97095.22;;;11.54;100.00
23446;BME280;11895;48.738;9.320;2022-09-27T03:22:31;97093.44;;;11.66;100.00
23446;BME280;11895;48.738;9.320;2022-09-27T03:24:59;97092.81;;;11.74;100.00
23446;BME280;11895;48.738;9.320;2022-09-27T03:27:26;97097.50;;;11.72;100.00
23446;BME280;11895;48.738;9.320;2022-09-27T03:29:53;97099.69;;;11.67;100.00
23446;BME280;11895;48.738;9.320;2022-09-27T03:32:21;97105.78;;;11.46;100.00
23446;BME280;11895;48.738;9.320;2022-09-27T03:35:08;97105.47;;;11.27;100.00
23446;BME280;11895;48.738;9.320;2022-09-27T03:37:36;97106.19;;;11.29;100.00
23446;BME280;11895;48.738;9.320;2022-09-27T03:40:04;97117.28;;;11.48;100.00
23446;BME280;11895;48.738;9.320;2022-09-27T03:42:33;97113.13;;;11.55;100.00
23446;BME280;11895;48.738;9.320;2022-09-27T03:45:01;97121.59;;;11.51;100.00
23446;BME280;11895;48.738;9.320;2022-09-27T03:47:28;97109.47;;;11.56;100.00
23446;BME280;11895;48.738;9.320;2022-09-27T03:49:56;97113.66;;;11.61;100.00
23446;BME280;11895;48.738;9.320;2022-09-27T03:52:23;97119.00;;;11.49;100.00
23446;BME280;11895;48.738;9.320;2022-09-27T03:54:56;97118.47;;;11.33;100.00
23446;BME280;11895;48.738;9.320;2022-09-27T03:57:29;97119.56;;;11.30;100.00
23446;BME280;11895;48.738;9.320;2022-09-27T03:59:58;97120.34;;;11.09;100.00
23446;BME280;11895;48.738;9.320;2022-09-27T04:02:56;97121.94;;;10.87;100.00
23446;BME280;11895;48.738;9.320;2022-09-27T04:05:43;97108.47;;;10.87;100.00
23446;BME280;11895;48.738;9.320;2022-09-27T04:08:16;97109.78;;;11.05;100.00
23446;BME280;11895;48.738;9.320;2022-09-27T04:10:43;97115.88;;;10.96;100.00
23446;BME280;11895;48.738;9.320;2022-09-27T04:13:11;97114.63;;;11.24;100.00
23446;BME280;11895;48.738;9.320;2022-09-27T04:15:51;97121.44;;;11.41;100.00
23446;BME280;11895;48.738;9.320;2022-09-27T04:18:45;97109.63;;;11.31;100.00
23446;BME280;11895;48.738;9.320;2022-09-27T04:21:33;97118.84;;;11.40;100.00
23446;BME280;11895;48.738;9.320;2022-09-27T04:24:00;97123.16;;;11.42;100.00
23446;BME280;11895;48.738;9.320;2022-09-27T04:26:28;97125.63;;;11.21;100.00
23446;BME280;11895;48.738;9.320;2022-09-27T04:29:00;97126.69;;;11.31;100.00
23446;BME280;11895;48.738;9.320;2022-09-27T04:31:28;97125.25;;;11.15;100.00
23446;BME280;11895;48.738;9.320;2022-09-27T04:34:15;97133.84;;;11.20;100.00
23446;BME280;11895;48.738;9.320;2022-09-27T04:36:42;97128.47;;;11.20;100.00
23446;BME280;11895;48.738;9.320;2022-09-27T04:39:14;97137.19;;;11.23;100.00
23446;BME280;11895;48.738;9.320;2022-09-27T04:41:43;97137.31;;;11.22;100.00
23446;BME280;11895;48.738;9.320;2022-09-27T04:44:12;97138.22;;;11.10;100.00
23446;BME280;11895;48.738;9.320;2022-09-27T04:46:42;97136.03;;;11.15;100.00
23446;BME280;11895;48.738;9.320;2022-09-27T04:49:11;97138.25;;;11.21;100.00
23446;BME280;11895;48.738;9.320;2022-09-27T04:51:38;97139.88;;;11.23;100.00
23446;BME280;11895;48.738;9.320;2022-09-27T04:54:05;97140.41;;;11.04;100.00
23446;BME280;11895;48.738;9.320;2022-09-27T04:56:37;97143.47;;;11.11;100.00
23446;BME280;11895;48.738;9.320;2022-09-27T04:59:08;97145.56;;;11.07;100.00
23446;BME280;11895;48.738;9.320;2022-09-27T05:01:38;97144.16;;;11.26;100.00
23446;BME280;11895;48.738;9.320;2022-09-27T05:04:14;97144.06;;;11.03;100.00
23446;BME280;11895;48.738;9.320;2022-09-27T05:06:47;97147.97;;;10.99;100.00
23446;BME280;11895;48.738;9.320;2022-09-27T05:09:27;97166.25;;;11.07;100.00
23446;BME280;11895;48.738;9.320;2022-09-27T05:11:55;97169.09;;;11.17;100.00
23446;BME280;11895;48.738;9.320;2022-09-27T05:14:35;97158.72;;;11.47;100.00
23446;BME280;11895;48.738;9.320;2022-09-27T05:17:09;97169.34;;;11.38;100.00
23446;BME280;11895;48.738;9.320;2022-09-27T05:19:56;97179.69;;;11.55;100.00
23446;BME280;11895;48.738;9.320;2022-09-27T05:22:39;97181.47;;;11.43;100.00
23446;BME280;11895;48.738;9.320;2022-09-27T05:25:07;97176.59;;;11.48;100.00
23446;BME280;11895;48.738;9.320;2022-09-27T05:27:34;97175.88;;;11.46;100.00
23446;BME280;11895;48.738;9.320;2022-09-27T05:30:02;97183.16;;;11.33;100.00
23446;BME280;11895;48.738;9.320;2022-09-27T05:32:41;97185.56;;;11.25;100.00
23446;BME280;11895;48.738;9.320;2022-09-27T05:35:29;97191.53;;;11.41;100.00
23446;BME280;11895;48.738;9.320;2022-09-27T05:37:58;97199.19;;;11.58;100.00
23446;BME280;11895;48.738;9.320;2022-09-27T05:40:29;97197.47;;;11.57;100.00
23446;BME280;11895;48.738;9.320;2022-09-27T05:43:11;97198.88;;;11.39;100.00
23446;BME280;11895;48.738;9.320;2022-09-27T05:45:38;97194.50;;;11.49;100.00
23446;BME280;11895;48.738;9.320;2022-09-27T05:48:06;97204.50;;;11.71;100.00
23446;BME280;11895;48.738;9.320;2022-09-27T05:50:42;97201.97;;;11.81;100.00
23446;BME280;11895;48.738;9.320;2022-09-27T05:53:10;97213.97;;;11.42;100.00
23446;BME280;11895;48.738;9.320;2022-09-27T05:55:40;97219.69;;;11.37;100.00
23446;BME280;11895;48.738;9.320;2022-09-27T05:58:09;97222.59;;;11.34;100.00
23446;BME280;11895;48.738;9.320;2022-09-27T06:00:44;97235.97;;;11.36;100.00
23446;BME280;11895;48.738;9.320;2022-09-27T06:03:32;97235.88;;;11.13;100.00
23446;BME280;11895;48.738;9.320;2022-09-27T06:06:20;97252.72;;;10.91;100.00
23446;BME280;11895;48.738;9.320;2022-09-27T06:08:53;97256.38;;;11.03;100.00
23446;BME280;11895;48.738;9.320;2022-09-27T06:11:23;97255.25;;;11.18;100.00
23446;BME280;11895;48.738;9.320;2022-09-27T06:13:51;97259.53;;;11.45;100.00
23446;BME280;11895;48.738;9.320;2022-09-27T06:16:19;97255.09;;;11.56;100.00
23446;BME280;11895;48.738;9.320;2022-09-27T06:18:46;97256.16;;;11.54;100.00
23446;BME280;11895;48.738;9.320;2022-09-27T06:21:15;97258.81;;;11.43;100.00
23446;BME280;11895;48.738;9.320;2022-09-27T06:23:49;97263.00;;;11.23;100.00
23446;BME280;11895;48.738;9.320;2022-09-27T06:26:28;97267.03;;;11.41;100.00
23446;BME280;11895;48.738;9.320;2022-09-27T06:29:08;97260.38;;;11.21;100.00
23446;BME280;11895;48.738;9.320;2022-09-27T06:31:38;97265.53;;;11.37;100.00
23446;BME280;11895;48.738;9.320;2022-09-27T06:34:15;97269.78;;;11.16;100.00
23446;BME280;11895;48.738;9.320;2022-09-27T06:36:43;97273.97;;;11.20;100.00
23446;BME280;11895;48.738;9.320;2022-09-27T06:39:17;97268.44;;;10.97;100.00
23446;BME280;11895;48.738;9.320;2022-09-27T06:42:01;97282.00;;;11.09;100.00
23446;BME280;11895;48.738;9.320;2022-09-27T06:44:49;97282.03;;;10.96;100.00
23446;BME280;11895;48.738;9.320;2022-09-27T06:47:36;97289.78;;;11.00;100.00
23446;BME280;11895;48.738;9.320;2022-09-27T06:50:15;97291.59;;;11.13;100.00
23446;BME280;11895;48.738;9.320;2022-09-27T06:52:48;97294.34;;;11.24;100.00
23446;BME280;11895;48.738;9.320;2022-09-27T06:55:16;97290.72;;;11.36;100.00
23446;BME280;11895;48.738;9.320;2022-09-27T06:57:44;97297.88;;;11.37;100.00
23446;BME280;11895;48.738;9.320;2022-09-27T07:00:31;97291.19;;;11.30;100.00
23446;BME280;11895;48.738;9.320;2022-09-27T07:03:20;97308.41;;;11.40;100.00
23446;BME280;11895;48.738;9.320;2022-09-27T07:06:22;97301.31;;;11.39;100.00
23446;BME280;11895;48.738;9.320;2022-09-27T07:08:57;97306.72;;;11.87;100.00
23446;BME280;11895;48.738;9.320;2022-09-27T07:11:24;97315.16;;;12.18;100.00
23446;BME280;11895;48.738;9.320;2022-09-27T07:13:52;97312.38;;;12.19;100.00
23446;BME280;11895;48.738;9.320;2022-09-27T07:16:21;97313.72;;;12.14;100.00
23446;BME280;11895;48.738;9.320;2022-09-27T07:18:49;97313.22;;;12.20;100.00
23446;BME280;11895;48.738;9.320;2022-09-27T07:21:17;97320.22;;;11.87;100.00
23446;BME280;11895;48.738;9.320;2022-09-27T07:23:45;97327.47;;;11.74;100.00
23446;BME280;11895;48.738;9.320;2022-09-27T07:26:13;97325.91;;;11.35;100.00
23446;BME280;11895;48.738;9.320;2022-09-27T07:28:42;97326.13;;;11.55;100.00
23446;BME280;11895;48.738;9.320;2022-09-27T07:31:14;97330.81;;;11.53;100.00
23446;BME280;11895;48.738;9.320;2022-09-27T07:33:42;97331.00;;;11.50;100.00
23446;BME280;11895;48.738;9.320;2022-09-27T07:36:11;97342.66;;;11.27;100.00
23446;BME280;11895;48.738;9.320;2022-09-27T07:38:42;97338.97;;;11.28;100.00
23446;BME280;11895;48.738;9.320;2022-09-27T07:41:11;97341.56;;;11.17;100.00
23446;BME280;11895;48.738;9.320;2022-09-27T07:43:41;97345.00;;;11.31;100.00
23446;BME280;11895;48.738;9.320;2022-09-27T07:46:11;97348.38;;;11.22;100.00
23446;BME280;11895;48.738;9.320;2022-09-27T07:48:50;97357.38;;;11.34;100.00
23446;BME280;11895;48.738;9.320;2022-09-27T07:51:33;97368.31;;;11.20;100.00
23446;BME280;11895;48.738;9.320;2022-09-27T07:54:25;97363.22;;;11.28;100.00
23446;BME280;11895;48.738;9.320;2022-09-27T07:57:13;97349.72;;;11.65;100.00
23446;BME280;11895;48.738;9.320;2022-09-27T07:59:48;97354.69;;;11.71;100.00
23446;BME280;11895;48.738;9.320;2022-09-27T08:02:18;97354.28;;;12.12;100.00
23446;BME280;11895;48.738;9.320;2022-09-27T08:04:47;97360.41;;;12.38;100.00
23446;BME280;11895;48.738;9.320;2022-09-27T08:07:15;97354.34;;;12.70;100.00
23446;BME280;11895;48.738;9.320;2022-09-27T08:09:45;97365.19;;;12.92;100.00
23446;BME280;11895;48.738;9.320;2022-09-27T08:12:13;97359.66;;;12.94;100.00
23446;BME280;11895;48.738;9.320;2022-09-27T08:14:42;97358.66;;;12.95;100.00
23446;BME280;11895;48.738;9.320;2022-09-27T08:17:15;97371.59;;;12.91;100.00
23446;BME280;11895;48.738;9.320;2022-09-27T08:20:03;97373.34;;;13.26;100.00
23446;BME280;11895;48.738;9.320;2022-09-27T08:22:52;97384.59;;;13.20;100.00
23446;BME280;11895;48.738;9.320;2022-09-27T08:25:25;97383.53;;;13.22;100.00
23446;BME280;11895;48.738;9.320;2022-09-27T08:28:16;97380.81;;;13.33;100.00
23446;BME280;11895;48.738;9.320;2022-09-27T08:30:57;97385.09;;;13.13;100.00
23446;BME280;11895;48.738;9.320;2022-09-27T08:33:25;97390.50;;;13.02;100.00
23446;BME280;11895;48.738;9.320;2022-09-27T08:35:59;97392.13;;;13.16;100.00
23446;BME280;11895;48.738;9.320;2022-09-27T08:38:27;97393.47;;;13.67;100.00
23446;BME280;11895;48.738;9.320;2022-09-27T08:40:58;97400.78;;;13.87;100.00
23446;BME280;11895;48.738;9.320;2022-09-27T08:48:51;97402.47;;;14.10;100.00
23446;BME280;11895;48.738;9.320;2022-09-27T08:51:27;97396.41;;;14.18;100.00
23446;BME280;11895;48.738;9.320;2022-09-27T08:54:03;97397.41;;;14.17;100.00
23446;BME280;11895;48.738;9.320;2022-09-27T08:56:35;97403.78;;;13.84;100.00
23446;BME280;11895;48.738;9.320;2022-09-27T08:59:11;97395.88;;;13.92;100.00
23446;BME280;11895;48.738;9.320;2022-09-27T09:01:40;97391.00;;;13.75;100.00
23446;BME280;11895;48.738;9.320;2022-09-27T09:04:22;97399.56;;;14.02;100.00
23446;BME280;11895;48.738;9.320;2022-09-27T09:07:20;97404.44;;;13.31;100.00
23446;BME280;11895;48.738;9.320;2022-09-27T09:19:44;97414.34;;;13.76;100.00
23446;BME280;11895;48.738;9.320;2022-09-27T09:31:52;97389.97;;;14.62;100.00
23446;BME280;11895;48.738;9.320;2022-09-27T09:34:42;97393.41;;;14.64;92.97
23446;BME280;11895;48.738;9.320;2022-09-27T09:37:20;97396.56;;;14.49;89.93
23446;BME280;11895;48.738;9.320;2022-09-27T09:42:38;97407.72;;;15.18;90.99
23446;BME280;11895;48.738;9.320;2022-09-27T09:45:29;97396.59;;;14.90;84.12
23446;BME280;11895;48.738;9.320;2022-09-27T09:48:32;97394.81;;;14.80;89.45
23446;BME280;11895;48.738;9.320;2022-09-27T09:51:07;97403.25;;;15.07;84.11
23446;BME280;11895;48.738;9.320;2022-09-27T09:53:47;97397.31;;;15.13;80.99
23446;BME280;11895;48.738;9.320;2022-09-27T09:56:27;97388.56;;;14.89;85.70
23446;BME280;11895;48.738;9.320;2022-09-27T09:59:00;97403.97;;;14.68;85.37
23446;BME280;11895;48.738;9.320;2022-09-27T10:01:43;97392.56;;;14.85;84.59
23446;BME280;11895;48.738;9.320;2022-09-27T10:04:18;97398.09;;;15.04;82.52
23446;BME280;11895;48.738;9.320;2022-09-27T10:06:58;97383.00;;;15.11;81.31
23446;BME280;11895;48.738;9.320;2022-09-27T10:09:31;97384.28;;;15.38;76.50
23446;BME280;11895;48.738;9.320;2022-09-27T10:12:19;97373.84;;;15.33;75.19
23446;BME280;11895;48.738;9.320;2022-09-27T10:14:48;97367.16;;;15.78;72.23
23446;BME280;11895;48.738;9.320;2022-09-27T10:17:20;97366.63;;;15.23;75.11
23446;BME280;11895;48.738;9.320;2022-09-27T10:19:50;97371.59;;;15.17;72.05
23446;BME280;11895;48.738;9.320;2022-09-27T10:22:25;97368.81;;;15.29;73.63
23446;BME280;11895;48.738;9.320;2022-09-27T10:25:04;97369.44;;;15.42;71.99
23446;BME280;11895;48.738;9.320;2022-09-27T10:27:43;97373.31;;;15.89;70.92
23446;BME280;11895;48.738;9.320;2022-09-27T10:30:33;97382.44;;;15.79;70.08
23446;BME280;11895;48.738;9.320;2022-09-27T10:33:16;97374.47;;;15.87;67.80
23446;BME280;11895;48.738;9.320;2022-09-27T10:35:50;97374.28;;;15.38;70.94
23446;BME280;11895;48.738;9.320;2022-09-27T10:38:28;97373.41;;;15.28;71.17
23446;BME280;11895;48.738;9.320;2022-09-27T10:41:22;97379.03;;;15.46;70.30
23446;BME280;11895;48.738;9.320;2022-09-27T10:47:06;97377.53;;;15.02;74.43
23446;BME280;11895;48.738;9.320;2022-09-27T10:49:42;97376.13;;;15.07;71.69
23446;BME280;11895;48.738;9.320;2022-09-27T10:52:22;97368.56;;;15.41;73.61
23446;BME280;11895;48.738;9.320;2022-09-27T10:54:59;97373.84;;;15.33;70.76
23446;BME280;11895;48.738;9.320;2022-09-27T10:57:48;97362.84;;;15.65;70.47
23446;BME280;11895;48.738;9.320;2022-09-27T11:03:04;97350.53;;;15.31;74.94
23446;BME280;11895;48.738;9.320;2022-09-27T11:05:37;97354.22;;;16.10;72.55
23446;BME280;11895;48.738;9.320;2022-09-27T11:08:30;97353.44;;;15.39;72.89
23446;BME280;11895;48.738;9.320;2022-09-27T11:14:17;97343.84;;;15.65;72.11
23446;BME280;11895;48.738;9.320;2022-09-27T11:25:26;97336.06;;;16.11;72.03
23446;BME280;11895;48.738;9.320;2022-09-27T11:34:23;97328.91;;;15.50;73.80
23446;BME280;11895;48.738;9.320;2022-09-27T11:43:00;97307.31;;;15.89;69.11
23446;BME280;11895;48.738;9.320;2022-09-27T12:09:09;97322.56;;;15.30;75.45
23446;BME280;11895;48.738;9.320;2022-09-27T12:11:45;97320.47;;;15.13;77.13
23446;BME280;11895;48.738;9.320;2022-09-27T12:17:07;97319.63;;;14.82;81.18
23446;BME280;11895;48.738;9.320;2022-09-27T12:19:45;97318.47;;;15.05;79.76
23446;BME280;11895;48.738;9.320;2022-09-27T12:22:28;97319.47;;;15.45;80.10
23446;BME280;11895;48.738;9.320;2022-09-27T12:25:25;97325.94;;;15.23;80.19
23446;BME280;11895;48.738;9.320;2022-09-27T12:30:47;97326.19;;;15.10;85.14
23446;BME280;11895;48.738;9.320;2022-09-27T12:33:43;97340.75;;;15.09;83.65
23446;BME280;11895;48.738;9.320;2022-09-27T12:36:18;97338.63;;;15.43;80.18
23446;BME280;11895;48.738;9.320;2022-09-27T12:38:59;97335.91;;;15.12;80.82
23446;BME280;11895;48.738;9.320;2022-09-27T12:41:35;97339.00;;;15.08;85.18
23446;BME280;11895;48.738;9.320;2022-09-27T12:44:17;97344.47;;;14.87;92.05
23446;BME280;11895;48.738;9.320;2022-09-27T12:47:14;97331.38;;;14.92;96.13
23446;BME280;11895;48.738;9.320;2022-09-27T12:59:00;97349.38;;;14.72;100.00
23446;BME280;11895;48.738;9.320;2022-09-27T13:01:48;97340.44;;;14.39;100.00
23446;BME280;11895;48.738;9.320;2022-09-27T13:07:18;97328.44;;;14.53;100.00
23446;BME280;11895;48.738;9.320;2022-09-27T13:13:11;97338.00;;;14.78;100.00
23446;BME280;11895;48.738;9.320;2022-09-27T13:15:47;97318.47;;;15.05;100.00
23446;BME280;11895;48.738;9.320;2022-09-27T13:27:36;97310.03;;;15.39;100.00
23446;BME280;11895;48.738;9.320;2022-09-27T13:39:15;97308.19;;;14.99;100.00
23446;BME280;11895;48.738;9.320;2022-09-27T13:42:16;97308.47;;;15.06;100.00
23446;BME280;11895;48.738;9.320;2022-09-27T13:45:14;97314.00;;;15.35;100.00
23446;BME280;11895;48.738;9.320;2022-09-27T13:47:51;97300.41;;;15.65;100.00
23446;BME280;11895;48.738;9.320;2022-09-27T13:50:57;97314.84;;;15.76;100.00
23446;BME280;11895;48.738;9.320;2022-09-27T13:59:20;97299.22;;;15.58;100.00
23446;BME280;11895;48.738;9.320;2022-09-27T14:02:12;97302.44;;;15.73;98.97
23446;BME280;11895;48.738;9.320;2022-09-27T14:04:48;97297.72;;;15.75;95.29
23446;BME280;11895;48.738;9.320;2022-09-27T14:07:23;97289.69;;;16.51;94.36
23446;BME280;11895;48.738;9.320;2022-09-27T14:09:56;97285.66;;;17.49;85.45
23446;BME280;11895;48.738;9.320;2022-09-27T14:12:36;97273.28;;;17.82;75.97
23446;BME280;11895;48.738;9.320;2022-09-27T14:15:17;97270.88;;;17.97;74.89
23446;BME280;11895;48.738;9.320;2022-09-27T14:17:47;97267.16;;;17.53;77.17
23446;BME280;11895;48.738;9.320;2022-09-27T14:20:32;97263.63;;;16.58;81.09
23446;BME280;11895;48.738;9.320;2022-09-27T14:23:17;97277.25;;;16.49;91.74
23446;BME280;11895;48.738;9.320;2022-09-27T14:25:51;97292.72;;;15.90;100.00
23446;BME280;11895;48.738;9.320;2022-09-27T14:28:25;97313.19;;;15.44;100.00
23446;BME280;11895;48.738;9.320;2022-09-27T14:33:42;97315.47;;;13.83;100.00
23446;BME280;11895;48.738;9.320;2022-09-27T14:39:11;97315.56;;;13.93;100.00
23446;BME280;11895;48.738;9.320;2022-09-27T14:41:41;97339.63;;;13.96;100.00
23446;BME280;11895;48.738;9.320;2022-09-27T14:44:15;97337.31;;;13.91;100.00
23446;BME280;11895;48.738;9.320;2022-09-27T14:47:21;97338.88;;;14.05;100.00
23446;BME280;11895;48.738;9.320;2022-09-27T14:49:53;97341.25;;;13.87;100.00
23446;BME280;11895;48.738;9.320;2022-09-27T14:52:33;97334.66;;;13.80;100.00
23446;BME280;11895;48.738;9.320;2022-09-27T14:55:08;97333.41;;;13.84;100.00
23446;BME280;11895;48.738;9.320;2022-09-27T14:57:45;97334.06;;;14.08;100.00
23446;BME280;11895;48.738;9.320;2022-09-27T15:02:53;97338.28;;;14.75;100.00
23446;BME280;11895;48.738;9.320;2022-09-27T15:05:29;97328.50;;;15.14;100.00
23446;BME280;11895;48.738;9.320;2022-09-27T15:08:16;97327.47;;;15.46;100.00
23446;BME280;11895;48.738;9.320;2022-09-27T15:10:53;97324.78;;;16.15;100.00
23446;BME280;11895;48.738;9.320;2022-09-27T15:13:20;97320.44;;;17.83;100.00
23446;BME280;11895;48.738;9.320;2022-09-27T15:15:48;97316.03;;;19.57;100.00
23446;BME280;11895;48.738;9.320;2022-09-27T15:21:33;97328.63;;;22.03;67.03
23446;BME280;11895;48.738;9.320;2022-09-27T15:24:03;97326.19;;;20.32;66.20
23446;BME280;11895;48.738;9.320;2022-09-27T15:26:36;97326.06;;;20.90;64.81
23446;BME280;11895;48.738;9.320;2022-09-27T15:29:24;97298.81;;;21.69;65.95
23446;BME280;11895;48.738;9.320;2022-09-27T15:32:02;97307.50;;;22.66;50.72
23446;BME280;11895;48.738;9.320;2022-09-27T15:34:33;97319.22;;;18.66;57.49
23446;BME280;11895;48.738;9.320;2022-09-27T15:37:02;97323.59;;;19.03;60.23
23446;BME280;11895;48.738;9.320;2022-09-27T15:39:34;97330.47;;;16.32;63.66
23446;BME280;11895;48.738;9.320;2022-09-27T15:42:18;97323.75;;;15.87;64.45
23446;BME280;11895;48.738;9.320;2022-09-27T15:44:48;97332.22;;;15.13;69.39
23446;BME280;11895;48.738;9.320;2022-09-27T15:52:53;97338.75;;;14.59;73.56
23446;BME280;11895;48.738;9.320;2022-09-27T15:55:25;97333.84;;;14.53;76.76
23446;BME280;11895;48.738;9.320;2022-09-27T15:58:03;97344.09;;;14.50;75.20
23446;BME280;11895;48.738;9.320;2022-09-27T16:00:34;97339.19;;;14.44;73.61
23446;BME280;11895;48.738;9.320;2022-09-27T16:03:02;97336.31;;;14.45;76.92
23446;BME280;11895;48.738;9.320;2022-09-27T16:05:29;97344.81;;;14.73;84.34
23446;BME280;11895;48.738;9.320;2022-09-27T16:07:59;97350.97;;;14.96;85.10
23446;BME280;11895;48.738;9.320;2022-09-27T16:10:35;97352.06;;;14.93;85.96
23446;BME280;11895;48.738;9.320;2022-09-27T16:13:03;97357.38;;;14.74;87.18
23446;BME280;11895;48.738;9.320;2022-09-27T16:15:30;97350.16;;;14.42;80.27
23446;BME280;11895;48.738;9.320;2022-09-27T16:17:57;97363.00;;;14.29;77.66
23446;BME280;11895;48.738;9.320;2022-09-27T16:20:26;97355.53;;;14.21;78.99
23446;BME280;11895;48.738;9.320;2022-09-27T16:22:54;97355.09;;;14.37;77.09
23446;BME280;11895;48.738;9.320;2022-09-27T16:25:23;97357.28;;;14.22;74.63
23446;BME280;11895;48.738;9.320;2022-09-27T16:27:51;97360.91;;;14.00;76.47
23446;BME280;11895;48.738;9.320;2022-09-27T16:30:18;97355.88;;;14.28;77.05
23446;BME280;11895;48.738;9.320;2022-09-27T16:32:47;97359.91;;;14.33;78.82
23446;BME280;11895;48.738;9.320;2022-09-27T16:35:15;97372.19;;;14.05;76.29
23446;BME280;11895;48.738;9.320;2022-09-27T16:37:43;97364.47;;;14.01;77.40
23446;BME280;11895;48.738;9.320;2022-09-27T16:40:11;97360.34;;;13.85;80.21
23446;BME280;11895;48.738;9.320;2022-09-27T16:42:40;97368.06;;;13.90;81.17
23446;BME280;11895;48.738;9.320;2022-09-27T16:45:09;97362.50;;;13.48;81.08
23446;BME280;11895;48.738;9.320;2022-09-27T16:47:48;97366.44;;;13.33;82.70
23446;BME280;11895;48.738;9.320;2022-09-27T16:50:16;97382.44;;;13.25;82.98
23446;BME280;11895;48.738;9.320;2022-09-27T16:53:03;97356.81;;;13.62;82.02
23446;BME280;11895;48.738;9.320;2022-09-27T16:55:31;97354.09;;;13.62;80.06
23446;BME280;11895;48.738;9.320;2022-09-27T16:57:58;97357.19;;;13.58;80.76
23446;BME280;11895;48.738;9.320;2022-09-27T17:00:25;97369.66;;;13.27;81.28
23446;BME280;11895;48.738;9.320;2022-09-27T17:02:59;97358.84;;;13.27;80.91
23446;BME280;11895;48.738;9.320;2022-09-27T17:05:26;97361.25;;;13.19;82.90
23446;BME280;11895;48.738;9.320;2022-09-27T17:07:54;97369.88;;;13.12;80.92
23446;BME280;11895;48.738;9.320;2022-09-27T17:10:21;97376.03;;;13.37;82.15